EDDV

Hannover Airport

Hannover, Germany
METAR EDDV 201420Z 04007KT 350V120 CAVOK 28/09 Q1013 NOSIG
Observed Flight Rules
Jul-20 @ 14:20 UTC (16 minutes ago) Visual Flight Rules
Wind Visibility Clouds
40° at 7 knots 10,000+ meters
  • Clear skies
Temperatures Readings
Current 28°C / 82°F
Dewpoint 9°C / 48°F
Humidity 30%
Altimeter 29.91" Hg
Pressure 1013 hPa
Elevation 54
METAR EDDV 201420Z 04007KT 350V120 CAVOK 28/09 Q1013 NOSIG
Observed Flight Rules
Jul-20 @ 14:20 UTC
(16 minutes ago)
VFR
Wind Visibility
40° at 7 knots 10,000+ meters
Clouds
  • Clear skies
Temperature Dewpoint
28°C / 82°F 9°C / 48°F
Humidity Altimeter Pressure
30% 29.91" Hg 1013 hPa